Friday, December 14, 2018, 7:56 PM EST
Back to Local

KBID, Block Island, Block Island State Airport

Location: Block Island, RI, United States Lat: 41.167
Local Time: 7:56 PM EST ( 0:56 GMT) Lon: -71.567
Time Zone: US/Eastern Elev: 108 ft

Show me the last for .
Show Decoded

2018-12-14 19:27 METAR KBID 150027Z AUTO 18007KT 10SM OVC009 08/07 A3036 RMK AO2 CIG 007V010 =
2018-12-14 19:09 METAR KBID 150009Z AUTO 16007KT 10SM BKN011 OVC080 08/07 A3035 RMK AO2 =
2018-12-14 18:56 METAR KBID 142356Z AUTO 16007KT 10SM FEW011 SCT065 BKN080 08/07 A3035 RMK AO2
                 SLP283 6//// T00780072 10089 20072 57016 =
2018-12-14 17:56 METAR KBID 142256Z AUTO 15004KT 10SM FEW009 SCT075 07/06 A3038 RMK AO2 SLP291
                 T00720061 TSNO =
2018-12-14 17:54 METAR KBID 142254Z AUTO 15005KT 10SM SCT009 SCT075 07/06 A3038 RMK AO2 =
2018-12-14 17:41 METAR KBID 142241Z AUTO 15004KT 10SM BKN009 OVC075 08/07 A3039 RMK AO2 =
2018-12-14 16:56 METAR KBID 142156Z AUTO 16004KT 10SM OVC011 08/06 A3040 RMK AO2 SLP299 T00780061
                 =
2018-12-14 16:21 METAR KBID 142121Z AUTO 16004KT 10SM BKN011 BKN018 08/06 A3040 RMK AO2 =
2018-12-14 16:11 METAR KBID 142111Z AUTO 15004KT 10SM SCT011 BKN018 08/06 A3040 RMK AO2 =
2018-12-14 15:56 METAR KBID 142056Z AUTO 15005KT 10SM BKN011 OVC018 08/06 A3040 RMK AO2 SLP299
                 T00830061 56005 =
2018-12-14 15:02 METAR KBID 142002Z AUTO 16006KT 10SM BKN013 08/06 A3041 RMK AO2 =
2018-12-14 14:56 METAR KBID 141956Z AUTO 15006KT 10SM SCT015 08/06 A3041 RMK AO2 SLP301 T00830056
                 =
2018-12-14 14:35 METAR KBID 141935Z AUTO 14006KT 10SM SCT019 08/05 A3040 RMK AO2 =
2018-12-14 14:12 METAR KBID 141912Z AUTO 14007KT 10SM BKN019 OVC060 08/05 A3040 RMK AO2 =
2018-12-14 13:56 METAR KBID 141856Z AUTO 15005KT 10SM FEW019 BKN060 08/05 A3040 RMK AO2 SLP299
                 T00830050 =
2018-12-14 13:12 METAR KBID 141812Z AUTO 16009KT 10SM SCT019 09/04 A3041 RMK AO2 =
2018-12-14 12:56 METAR KBID 141756Z AUTO 15008KT 10SM BKN019 08/04 A3042 RMK AO2 PRESFR SLP304
                 6//// T00830044 10089 20039 58037 =
2018-12-14 12:25 METAR KBID 141725Z AUTO 18008KT 10SM BKN017 08/04 A3045 RMK AO2 =
2018-12-14 11:56 METAR KBID 141656Z AUTO 16009KT 10SM FEW015 08/04 A3045 RMK AO2 SLP316 T00830039
                 =
2018-12-14 10:56 METAR KBID 141556Z AUTO 16011KT 10SM CLR 08/02 A3050 RMK AO2 SLP333 T00830022 =
2018-12-14 09:56 METAR KBID 141456Z AUTO 15010KT 10SM CLR 08/03 A3052 RMK AO2 SLP341 6////
                 T00780028 =
2018-12-14 08:56 METAR KBID 141356Z AUTO 13010KT 10SM CLR 07/01 A3052 RMK AO2 SLP339 T00720011 =
2018-12-14 07:56 METAR KBID 141256Z AUTO 14005KT 10SM CLR 05/01 RMK AO2 SLPNO T00500011 $ =
2018-12-14 06:56 METAR KBID 141156Z AUTO 11006KT 10SM CLR 04/01 A3050 RMK AO2 SLP332 6//// 7////
                 T00390006 10044 20033 58002 =
2018-12-14 06:13 METAR KBID 141113Z AUTO 12007KT 10SM SCT020 04/01 RMK AO2 $ =
2018-12-14 05:56 METAR KBID 141056Z AUTO 13007KT 10SM BKN020 04/01 A3051 RMK AO2 SLP336 T00390006
                 =
2018-12-14 04:56 METAR KBID 140956Z AUTO 13004KT 10SM BKN020 04/00 A3052 RMK AO2 SLP339 T00390000
                 =
2018-12-14 03:56 METAR KBID 140856Z AUTO 10006KT 10SM BKN020 04/00 A3050 RMK AO2 SLP334 6////
                 T00390000 =
2018-12-14 02:56 METAR KBID 140756Z AUTO 10005KT 10SM OVC020 04/01 A3052 RMK AO2 SLP341 T00390006
                 =
2018-12-14 01:56 METAR KBID 140656Z AUTO 12004KT 10SM OVC022 04/00 A3054 RMK AO2 SLP345 T00390000
                 =
2018-12-14 00:56 METAR KBID 140556Z AUTO 11005KT 10SM OVC024 04/00 RMK AO2 SLPNO 6//// T00440000
                 10044 20028 $ =
2018-12-13 23:56 METAR KBID 140456Z AUTO 10SM OVC022 04/00 A3054 RMK AO2 SLP345 T00440000 $ =
2018-12-13 22:56 METAR KBID 140356Z AUTO 12005KT 10SM OVC020 04/00 A3053 RMK AO2 SLP343 T00390000
                 400391017 =
2018-12-13 21:56 METAR KBID 140256Z AUTO 10SM BKN022 04/M01 A3053 RMK AO2 SLP344 6//// T00391006
                 =
2018-12-13 21:34 METAR KBID 140234Z AUTO 11009KT 10SM BKN022 03/M01 RMK AO2 $ =
2018-12-13 20:56 METAR KBID 140156Z AUTO 11007KT 10SM FEW024 OVC060 03/M01 A3053 RMK AO2 SLP343
                 T00331011 =

Support USWX by starting your Amazon purchase here.